createdAt,value
2023-05-04T00:00:10.225Z,12.25
2023-05-04T00:02:37.846Z,12.23
2023-05-04T00:05:07.313Z,12.21
2023-05-04T00:07:35.099Z,12.18
2023-05-04T00:10:04.944Z,12.15
2023-05-04T00:12:32.743Z,12.12
2023-05-04T00:15:00.280Z,12.03
2023-05-04T00:17:27.867Z,11.98
2023-05-04T00:19:55.436Z,11.95
2023-05-04T00:22:23.012Z,11.93
2023-05-04T00:24:50.600Z,11.88
2023-05-04T00:27:19.526Z,11.81
2023-05-04T00:29:47.155Z,11.77
2023-05-04T00:32:14.703Z,11.72
2023-05-04T00:34:42.226Z,11.68
2023-05-04T00:37:09.827Z,11.66
2023-05-04T00:39:37.321Z,11.64
2023-05-04T00:42:04.988Z,11.67
2023-05-04T00:44:34.627Z,11.70
2023-05-04T00:47:03.842Z,11.69
2023-05-04T00:49:31.450Z,11.70
2023-05-04T00:51:59.698Z,11.72
2023-05-04T00:54:27.350Z,11.71
2023-05-04T00:56:55.075Z,11.73
2023-05-04T00:59:22.650Z,11.72
2023-05-04T01:01:51.571Z,11.71
2023-05-04T01:04:19.163Z,11.71
2023-05-04T01:06:53.664Z,11.65
2023-05-04T01:09:27.110Z,11.57
2023-05-04T01:11:59.547Z,11.54
2023-05-04T01:14:27.552Z,11.51
2023-05-04T01:16:58.935Z,11.52
2023-05-04T01:19:28.108Z,11.50
2023-05-04T01:21:57.421Z,11.48
2023-05-04T01:24:25.797Z,11.49
2023-05-04T01:26:57.482Z,11.43
2023-05-04T01:29:30.301Z,11.37
2023-05-04T01:31:58.429Z,11.32
2023-05-04T01:34:26.054Z,11.24
2023-05-04T01:36:53.900Z,11.26
2023-05-04T01:39:22.838Z,11.30
2023-05-04T01:41:50.549Z,11.21
2023-05-04T01:44:18.122Z,11.08
2023-05-04T01:46:45.819Z,11.01
2023-05-04T01:49:13.480Z,10.95
2023-05-04T01:51:40.993Z,10.80
2023-05-04T01:54:08.512Z,10.74
2023-05-04T01:56:37.401Z,10.67
2023-05-04T01:59:04.951Z,10.66
2023-05-04T02:01:32.478Z,10.67
2023-05-04T02:04:00.212Z,10.65
2023-05-04T02:06:27.954Z,10.62
2023-05-04T02:08:55.597Z,10.62
2023-05-04T02:11:23.252Z,10.57
2023-05-04T02:13:52.185Z,10.46
2023-05-04T02:16:19.788Z,10.34
2023-05-04T02:18:47.522Z,10.26
2023-05-04T02:21:15.085Z,10.26
2023-05-04T02:23:42.609Z,10.23
2023-05-04T02:26:10.128Z,10.25
2023-05-04T02:28:37.741Z,10.28
2023-05-04T02:31:06.806Z,10.22
2023-05-04T02:33:34.460Z,10.16
2023-05-04T02:36:02.054Z,10.09
2023-05-04T02:38:29.570Z,10.02
2023-05-04T02:40:58.486Z,9.97
2023-05-04T02:43:26.197Z,9.89
2023-05-04T02:45:53.979Z,9.83
2023-05-04T02:48:22.850Z,9.77
2023-05-04T02:50:50.349Z,9.78
2023-05-04T02:53:17.869Z,9.78
2023-05-04T02:55:45.404Z,9.77
2023-05-04T02:58:12.926Z,9.73
2023-05-04T03:00:40.514Z,9.66
2023-05-04T03:03:08.058Z,9.62
2023-05-04T03:05:36.931Z,9.65
2023-05-04T03:08:04.673Z,9.65
2023-05-04T03:10:32.306Z,9.64
2023-05-04T03:13:03.851Z,9.66
2023-05-04T03:15:31.499Z,9.68
2023-05-04T03:17:59.061Z,9.69
2023-05-04T03:20:26.738Z,9.76
2023-05-04T03:22:55.693Z,9.83
2023-05-04T03:25:23.294Z,9.89
2023-05-04T03:27:50.813Z,9.96
2023-05-04T03:30:18.535Z,10.00
2023-05-04T03:32:46.162Z,10.03
2023-05-04T03:35:14.215Z,10.02
2023-05-04T03:37:41.781Z,10.00
2023-05-04T03:40:11.865Z,9.93
2023-05-04T03:42:39.423Z,9.87
2023-05-04T03:45:08.071Z,9.88
2023-05-04T03:47:35.709Z,9.86
2023-05-04T03:50:03.536Z,9.82
2023-05-04T03:52:31.436Z,9.81
2023-05-04T03:54:59.022Z,9.83
2023-05-04T03:57:27.900Z,9.86
2023-05-04T03:59:57.689Z,9.88
2023-05-04T04:02:25.646Z,9.90
2023-05-04T04:04:53.422Z,9.86
2023-05-04T04:07:20.956Z,9.77
2023-05-04T04:09:48.489Z,9.71
2023-05-04T04:12:18.268Z,9.63
2023-05-04T04:14:48.320Z,9.59
2023-05-04T04:17:16.192Z,9.58
2023-05-04T04:19:43.719Z,9.57
2023-05-04T04:22:11.347Z,9.54
2023-05-04T04:24:40.242Z,9.53
2023-05-04T04:27:07.769Z,9.55
2023-05-04T04:29:35.624Z,9.57
2023-05-04T04:32:04.587Z,9.60
2023-05-04T04:34:32.442Z,9.59
2023-05-04T04:36:59.956Z,9.57
2023-05-04T04:39:27.618Z,9.56
2023-05-04T04:41:55.258Z,9.58
2023-05-04T04:44:22.825Z,9.56
2023-05-04T04:46:50.985Z,9.58
2023-05-04T04:49:19.943Z,9.60
2023-05-04T04:51:48.839Z,9.65
2023-05-04T04:54:16.721Z,9.73
2023-05-04T04:56:44.925Z,9.80
2023-05-04T04:59:12.887Z,9.87
2023-05-04T05:01:42.114Z,9.92
2023-05-04T05:04:09.790Z,9.97
2023-05-04T05:06:38.815Z,10.05
2023-05-04T05:09:06.449Z,10.12
2023-05-04T05:11:35.327Z,10.17
2023-05-04T05:14:02.918Z,10.23
2023-05-04T05:16:30.643Z,10.28
2023-05-04T05:18:58.207Z,10.32
2023-05-04T05:21:25.820Z,10.40
2023-05-04T05:23:54.718Z,10.47
2023-05-04T05:26:22.475Z,10.55
2023-05-04T05:28:50.057Z,10.62
2023-05-04T05:31:17.644Z,10.65
2023-05-04T05:33:45.203Z,10.72
2023-05-04T05:36:12.723Z,10.81
2023-05-04T05:38:40.236Z,10.82
2023-05-04T05:41:09.686Z,10.80
2023-05-04T05:43:38.640Z,10.80
2023-05-04T05:46:07.522Z,10.83
2023-05-04T05:48:35.049Z,10.88
2023-05-04T05:51:02.828Z,10.92
2023-05-04T05:53:30.437Z,10.93
2023-05-04T05:55:57.991Z,10.98
2023-05-04T05:58:26.879Z,11.03
2023-05-04T06:00:54.372Z,11.04
2023-05-04T06:03:22.061Z,11.09
2023-05-04T06:05:49.657Z,11.13
2023-05-04T06:08:17.145Z,11.21
2023-05-04T06:10:44.658Z,11.24
2023-05-04T06:13:12.229Z,11.24
2023-05-04T06:15:41.138Z,11.30
2023-05-04T06:18:08.859Z,11.33
2023-05-04T06:20:36.555Z,11.37
2023-05-04T06:23:04.117Z,11.41
2023-05-04T06:25:32.110Z,11.44
2023-05-04T06:27:59.636Z,11.46
2023-05-04T06:30:27.201Z,11.50
2023-05-04T06:32:56.139Z,11.55
2023-05-04T06:35:23.855Z,11.59
2023-05-04T06:40:18.931Z,11.73
2023-05-04T06:42:46.473Z,11.78
2023-05-04T06:45:13.982Z,11.85
2023-05-04T06:47:41.734Z,11.90
2023-05-04T06:50:12.742Z,11.99
2023-05-04T06:52:41.638Z,12.09
2023-05-04T06:55:09.505Z,12.18
2023-05-04T06:57:37.248Z,12.28
2023-05-04T07:00:06.283Z,12.38
2023-05-04T07:02:34.336Z,12.48
2023-05-04T07:05:02.141Z,12.57
2023-05-04T07:07:31.005Z,12.65
2023-05-04T07:09:58.693Z,12.75
2023-05-04T07:12:26.263Z,12.86
2023-05-04T07:14:53.872Z,12.98
2023-05-04T07:17:22.100Z,13.08
2023-05-04T07:19:52.262Z,13.16
2023-05-04T07:22:20.851Z,13.28
2023-05-04T07:24:49.824Z,13.39
2023-05-04T07:27:17.332Z,13.53
2023-05-04T07:29:44.925Z,13.66
2023-05-04T07:32:12.480Z,13.78
2023-05-04T07:34:45.453Z,13.89
2023-05-04T07:37:14.003Z,13.98
2023-05-04T07:39:41.596Z,14.07
2023-05-04T07:42:12.176Z,14.20
2023-05-04T07:44:39.728Z,14.33
2023-05-04T07:47:07.316Z,14.45
2023-05-04T07:49:34.932Z,14.55
2023-05-04T07:52:02.424Z,14.64
2023-05-04T07:54:29.955Z,14.72
2023-05-04T07:56:57.462Z,14.86
2023-05-04T07:59:26.696Z,14.99
2023-05-04T08:01:54.234Z,15.14
2023-05-04T08:04:22.169Z,15.28
2023-05-04T08:06:49.836Z,15.41
2023-05-04T08:09:18.959Z,15.56
2023-05-04T08:11:47.510Z,15.70
2023-05-04T08:14:16.075Z,15.81
2023-05-04T08:16:44.990Z,15.94
2023-05-04T08:19:12.773Z,16.06
2023-05-04T08:21:40.555Z,16.20
2023-05-04T08:24:08.325Z,16.33
2023-05-04T08:26:37.960Z,16.46
2023-05-04T08:29:07.672Z,16.61
2023-05-04T08:31:35.711Z,16.74
2023-05-04T08:34:04.723Z,16.87
2023-05-04T08:36:32.309Z,16.98
2023-05-04T08:38:59.912Z,17.09
2023-05-04T08:41:27.501Z,17.22
2023-05-04T08:43:55.476Z,17.32
2023-05-04T08:46:23.718Z,17.42
2023-05-04T08:48:51.449Z,17.54
2023-05-04T08:51:21.138Z,17.67
2023-05-04T08:53:51.356Z,17.79
2023-05-04T08:56:19.748Z,17.87
2023-05-04T08:58:50.452Z,17.97
2023-05-04T09:01:18.764Z,18.04
2023-05-04T09:03:48.045Z,18.15
2023-05-04T09:06:16.193Z,18.26
2023-05-04T09:08:45.114Z,18.36
2023-05-04T09:11:12.736Z,18.46
2023-05-04T09:13:42.567Z,18.57
2023-05-04T09:16:10.808Z,18.61
2023-05-04T09:18:40.770Z,18.70
2023-05-04T09:21:08.742Z,18.80
2023-05-04T09:23:48.188Z,18.87
2023-05-04T09:26:15.962Z,18.95
2023-05-04T09:28:43.789Z,19.04
2023-05-04T09:31:11.831Z,19.09
2023-05-04T09:33:39.504Z,19.17
2023-05-04T09:36:17.390Z,19.24
2023-05-04T09:38:45.216Z,19.31
2023-05-04T09:41:14.270Z,19.32
2023-05-04T09:43:43.717Z,19.37
2023-05-04T09:46:18.701Z,19.44
2023-05-04T09:48:53.645Z,19.49
2023-05-04T09:51:23.244Z,19.50
2023-05-04T09:53:51.747Z,19.54
2023-05-04T09:56:28.469Z,19.61
2023-05-04T10:10:07.551Z,19.65
2023-05-04T10:12:59.101Z,19.75
2023-05-04T10:20:15.600Z,19.99
2023-05-04T10:23:06.720Z,20.14
2023-05-04T10:26:10.799Z,20.25
2023-05-04T10:28:55.660Z,20.29
2023-05-04T10:31:38.657Z,20.33
2023-05-04T10:34:07.719Z,20.29
2023-05-04T10:36:39.226Z,20.22
2023-05-04T10:39:21.956Z,20.15
2023-05-04T10:42:06.028Z,20.10
2023-05-04T10:44:37.522Z,20.14
2023-05-04T10:47:08.684Z,20.23
2023-05-04T10:49:37.344Z,20.32
2023-05-04T10:52:13.712Z,20.42
2023-05-04T10:54:42.719Z,20.53
2023-05-04T10:57:13.686Z,20.61
2023-05-04T10:59:43.207Z,20.71
2023-05-04T11:02:12.530Z,20.77
2023-05-04T11:04:40.687Z,20.81
2023-05-04T11:07:09.125Z,20.82
2023-05-04T11:09:38.126Z,20.83
2023-05-04T11:12:11.680Z,20.83
2023-05-04T11:14:43.565Z,20.84
2023-05-04T11:19:53.338Z,20.82
2023-05-04T11:22:22.229Z,20.79
2023-05-04T11:24:50.204Z,20.80
2023-05-04T11:27:25.605Z,20.85
2023-05-04T11:30:02.251Z,20.98
2023-05-04T11:32:39.810Z,21.13
2023-05-04T11:35:14.765Z,21.17
2023-05-04T11:37:45.286Z,21.16
2023-05-04T11:40:15.196Z,21.17
2023-05-04T11:42:44.540Z,21.29
2023-05-04T11:45:18.453Z,21.35
2023-05-04T11:47:49.016Z,21.39
2023-05-04T11:50:22.039Z,21.48
2023-05-04T11:52:52.366Z,21.58
2023-05-04T11:55:28.788Z,21.74
2023-05-04T11:58:00.695Z,21.83
2023-05-04T12:00:42.118Z,21.81
2023-05-04T12:03:13.684Z,21.83
2023-05-04T12:05:52.000Z,21.83
2023-05-04T12:08:33.622Z,21.91
2023-05-04T12:11:16.487Z,22.05
2023-05-04T12:13:45.771Z,22.08
2023-05-04T12:16:17.381Z,22.13
2023-05-04T12:18:46.704Z,22.11
2023-05-04T12:21:16.613Z,22.02
2023-05-04T12:23:45.708Z,21.99
2023-05-04T12:26:18.000Z,21.99
2023-05-04T12:28:48.003Z,21.95
2023-05-04T12:31:18.084Z,21.84
2023-05-04T12:33:46.905Z,21.81
2023-05-04T12:36:16.831Z,21.80
2023-05-04T12:38:45.127Z,21.85
2023-05-04T12:41:12.733Z,21.85
2023-05-04T12:43:40.419Z,21.85
2023-05-04T12:46:08.652Z,21.86
2023-05-04T12:48:37.736Z,21.84
2023-05-04T12:51:05.660Z,21.93
2023-05-04T12:53:33.573Z,22.01
2023-05-04T12:56:03.729Z,22.08
2023-05-04T12:58:32.235Z,22.15
2023-05-04T13:01:00.228Z,22.22
2023-05-04T13:03:28.282Z,22.26
2023-05-04T13:05:58.264Z,22.27
2023-05-04T13:08:25.952Z,22.21
2023-05-04T13:10:53.609Z,22.23
2023-05-04T13:13:24.483Z,22.27
2023-05-04T13:15:52.372Z,22.29
2023-05-04T13:18:19.973Z,22.29
2023-05-04T13:20:47.744Z,22.29
2023-05-04T13:23:17.069Z,22.30
2023-05-04T13:25:44.701Z,22.31
2023-05-04T13:28:12.363Z,22.32
2023-05-04T13:30:40.288Z,22.28
2023-05-04T13:33:20.673Z,22.27
2023-05-04T13:35:56.900Z,22.23
2023-05-04T13:38:25.946Z,22.16
2023-05-04T13:40:53.540Z,22.14
2023-05-04T13:43:22.201Z,22.14
2023-05-04T13:45:49.763Z,22.19
2023-05-04T13:48:18.045Z,22.18
2023-05-04T13:50:45.954Z,22.17
2023-05-04T13:53:13.522Z,22.13
2023-05-04T13:55:42.644Z,22.06
2023-05-04T13:58:10.427Z,21.99
2023-05-04T14:00:38.181Z,21.96
2023-05-04T14:03:06.167Z,21.94
2023-05-04T14:05:35.587Z,21.96
2023-05-04T14:08:03.337Z,21.94
2023-05-04T14:10:30.932Z,21.91
2023-05-04T14:12:59.941Z,21.89
2023-05-04T14:15:27.617Z,21.88
2023-05-04T14:17:55.416Z,21.87
2023-05-04T14:20:23.972Z,21.85
2023-05-04T14:22:51.922Z,21.85
2023-05-04T14:25:19.550Z,21.83
2023-05-04T14:27:47.131Z,21.78
2023-05-04T14:30:16.851Z,21.76
2023-05-04T14:32:44.465Z,21.76
2023-05-04T14:35:12.538Z,21.72
2023-05-04T14:37:41.028Z,21.67
2023-05-04T14:40:10.454Z,21.62
2023-05-04T14:42:38.811Z,21.57
2023-05-04T14:45:08.065Z,21.53
2023-05-04T14:47:37.894Z,21.51
2023-05-04T14:50:07.679Z,21.48
2023-05-04T14:52:36.309Z,21.46
2023-05-04T14:55:06.457Z,21.42
2023-05-04T14:57:34.711Z,21.38
2023-05-04T15:00:07.865Z,21.37
2023-05-04T15:02:39.546Z,21.30
2023-05-04T15:05:10.504Z,21.26
2023-05-04T15:07:38.753Z,21.22
2023-05-04T15:10:08.657Z,21.19
2023-05-04T15:12:38.008Z,21.16
2023-05-04T15:15:06.901Z,21.15
2023-05-04T15:17:35.785Z,21.12
2023-05-04T15:20:06.048Z,21.11
2023-05-04T15:22:36.315Z,21.10
2023-05-04T15:25:05.297Z,21.10
2023-05-04T15:27:33.394Z,21.08
2023-05-04T15:30:02.433Z,21.07
2023-05-04T15:32:30.881Z,21.04
2023-05-04T15:35:05.277Z,20.99
2023-05-04T15:37:38.477Z,20.98
2023-05-04T15:40:08.182Z,20.99
2023-05-04T15:42:36.661Z,20.97
2023-05-04T15:45:05.191Z,20.98
2023-05-04T15:47:34.663Z,20.99
2023-05-04T15:50:03.167Z,21.01
2023-05-04T15:52:31.871Z,21.01
2023-05-04T15:55:12.378Z,21.02
2023-05-04T15:57:41.233Z,21.01
2023-05-04T16:00:11.843Z,21.02
2023-05-04T16:02:39.783Z,21.00
2023-05-04T16:05:07.984Z,20.99
2023-05-04T16:07:35.688Z,20.97
2023-05-04T16:10:06.094Z,20.93
2023-05-04T16:12:33.803Z,20.90
2023-05-04T16:15:01.468Z,20.86
2023-05-04T16:17:30.774Z,20.81
2023-05-04T16:19:58.359Z,20.79
2023-05-04T16:22:25.911Z,20.78
2023-05-04T16:24:53.460Z,20.77
2023-05-04T16:27:24.010Z,20.73
2023-05-04T16:29:51.810Z,20.72
2023-05-04T16:32:19.368Z,20.72
2023-05-04T16:34:46.913Z,20.73
2023-05-04T16:37:15.149Z,20.73
2023-05-04T16:39:42.685Z,20.72
2023-05-04T16:42:10.181Z,20.69
2023-05-04T16:44:39.094Z,20.65
2023-05-04T16:47:07.181Z,20.61
2023-05-04T16:49:34.755Z,20.55
2023-05-04T16:52:02.978Z,20.49
2023-05-04T16:54:30.587Z,20.44
2023-05-04T16:56:58.113Z,20.39
2023-05-04T16:59:25.970Z,20.35
2023-05-04T17:01:54.882Z,20.33
2023-05-04T17:04:24.253Z,20.31
2023-05-04T17:06:51.807Z,20.29
2023-05-04T17:09:21.893Z,20.28
2023-05-04T17:11:49.485Z,20.30
2023-05-04T17:14:17.170Z,20.33
2023-05-04T17:16:44.838Z,20.33
2023-05-04T17:19:13.745Z,20.34
2023-05-04T17:21:41.374Z,20.33
2023-05-04T17:24:09.043Z,20.29
2023-05-04T17:26:36.583Z,20.28
2023-05-04T17:29:04.490Z,20.28
2023-05-04T17:31:32.012Z,20.26
2023-05-04T17:33:59.603Z,20.24
2023-05-04T17:36:28.716Z,20.24
2023-05-04T17:38:56.327Z,20.21
2023-05-04T17:41:25.151Z,20.18
2023-05-04T17:43:54.055Z,20.15
2023-05-04T17:46:21.598Z,20.10
2023-05-04T17:48:50.080Z,20.03
2023-05-04T17:51:17.842Z,19.96
2023-05-04T17:53:46.650Z,19.92
2023-05-04T17:56:14.312Z,19.87
2023-05-04T17:58:41.857Z,19.82
2023-05-04T18:01:09.359Z,19.78
2023-05-04T18:03:37.093Z,19.70
2023-05-04T18:06:05.357Z,19.65
2023-05-04T18:08:32.864Z,19.55
2023-05-04T18:11:01.772Z,19.48
2023-05-04T18:13:29.293Z,19.41
2023-05-04T18:15:56.878Z,19.33
2023-05-04T18:18:24.387Z,19.26
2023-05-04T18:20:52.316Z,19.23
2023-05-04T18:23:19.840Z,19.22
2023-05-04T18:25:47.369Z,19.18
2023-05-04T18:28:17.268Z,19.15
2023-05-04T18:30:44.867Z,19.12
2023-05-04T18:33:12.497Z,19.09
2023-05-04T18:35:40.001Z,19.09
2023-05-04T18:38:07.523Z,19.10
2023-05-04T18:40:35.253Z,19.07
2023-05-04T18:43:02.885Z,19.05
2023-05-04T18:45:31.898Z,19.02
2023-05-04T18:47:59.516Z,18.99
2023-05-04T18:50:27.260Z,18.96
2023-05-04T18:52:54.983Z,18.91
2023-05-04T18:55:22.837Z,18.86
2023-05-04T18:57:51.538Z,18.80
2023-05-04T19:00:19.929Z,18.80
2023-05-04T19:02:48.914Z,18.76
2023-05-04T19:05:16.508Z,18.71
2023-05-04T19:07:43.998Z,18.67
2023-05-04T19:10:11.925Z,18.64
2023-05-04T19:12:39.440Z,18.61
2023-05-04T19:15:08.127Z,18.59
2023-05-04T19:17:35.654Z,18.55
2023-05-04T19:20:05.236Z,18.50
2023-05-04T19:22:32.954Z,18.43
2023-05-04T19:25:00.517Z,18.37
2023-05-04T19:27:28.199Z,18.37
2023-05-04T19:29:56.163Z,18.39
2023-05-04T19:32:25.050Z,18.36
2023-05-04T19:34:53.384Z,18.31
2023-05-04T19:37:22.403Z,18.28
2023-05-04T19:39:50.076Z,18.27
2023-05-04T19:42:17.607Z,18.22
2023-05-04T19:44:45.128Z,18.15
2023-05-04T19:47:12.684Z,18.07
2023-05-04T19:49:40.218Z,18.02
2023-05-04T19:52:08.975Z,17.95
2023-05-04T19:54:38.317Z,17.86
2023-05-04T19:57:05.954Z,17.73
2023-05-04T19:59:33.493Z,17.63
2023-05-04T20:02:04.395Z,17.54
2023-05-04T20:04:32.122Z,17.47
2023-05-04T20:06:59.699Z,17.39
2023-05-04T20:09:28.970Z,17.34
2023-05-04T20:11:57.923Z,17.29
2023-05-04T20:14:25.504Z,17.22
2023-05-04T20:16:55.276Z,17.18
2023-05-04T20:19:22.870Z,17.13
2023-05-04T20:21:50.753Z,17.06
2023-05-04T20:24:18.772Z,16.98
2023-05-04T20:26:46.384Z,16.88
2023-05-04T20:29:15.355Z,16.83
2023-05-04T20:31:43.311Z,16.75
2023-05-04T20:34:10.923Z,16.65
2023-05-04T20:36:38.602Z,16.55
2023-05-04T20:39:06.840Z,16.51
2023-05-04T20:41:34.464Z,16.46
2023-05-04T20:44:01.966Z,16.45
2023-05-04T20:46:30.885Z,16.43
2023-05-04T20:48:59.304Z,16.38
2023-05-04T20:51:27.816Z,16.36
2023-05-04T20:53:55.333Z,16.32
2023-05-04T20:56:22.969Z,16.28
2023-05-04T20:58:50.660Z,16.22
2023-05-04T21:01:18.253Z,16.20
2023-05-04T21:03:47.557Z,16.18
2023-05-04T21:06:15.531Z,16.18
2023-05-04T21:08:43.061Z,16.17
2023-05-04T21:11:10.601Z,16.15
2023-05-04T21:13:38.174Z,16.15
2023-05-04T21:16:06.405Z,16.10
2023-05-04T21:18:34.010Z,16.08
2023-05-04T21:21:05.355Z,16.05
2023-05-04T21:23:33.144Z,16.02
2023-05-04T21:26:02.286Z,16.01
2023-05-04T21:28:30.169Z,16.00
2023-05-04T21:30:57.765Z,16.01
2023-05-04T21:33:25.469Z,16.01
2023-05-04T21:35:53.043Z,16.01
2023-05-04T21:38:22.263Z,15.99
2023-05-04T21:40:50.043Z,15.98
2023-05-04T21:43:17.580Z,15.95
2023-05-04T21:45:45.103Z,15.95
2023-05-04T21:48:12.642Z,15.93
2023-05-04T21:50:41.136Z,15.90
2023-05-04T21:53:08.671Z,15.84
2023-05-04T21:55:37.526Z,15.78
2023-05-04T21:58:05.012Z,15.78
2023-05-04T22:00:33.091Z,15.78
2023-05-04T22:03:01.075Z,15.76
2023-05-04T22:05:29.143Z,15.74
2023-05-04T22:07:56.689Z,15.72
2023-05-04T22:10:24.189Z,15.74
2023-05-04T22:12:53.120Z,15.74
2023-05-04T22:15:20.755Z,15.73
2023-05-04T22:17:48.467Z,15.70
2023-05-04T22:20:16.287Z,15.71
2023-05-04T22:22:44.104Z,15.69
2023-05-04T22:25:11.825Z,15.68
2023-05-04T22:27:39.590Z,15.67
2023-05-04T22:30:10.000Z,15.68
2023-05-04T22:32:37.719Z,15.68
2023-05-04T22:35:05.825Z,15.62
2023-05-04T22:37:33.366Z,15.60
2023-05-04T22:40:00.918Z,15.58
2023-05-04T22:42:29.033Z,15.60
2023-05-04T22:44:56.714Z,15.61
2023-05-04T22:47:25.736Z,15.61
2023-05-04T22:49:55.334Z,15.61
2023-05-04T22:52:23.019Z,15.58
2023-05-04T22:54:50.943Z,15.55
2023-05-04T22:57:18.460Z,15.53
2023-05-04T22:59:45.978Z,15.55
2023-05-04T23:02:15.050Z,15.55
2023-05-04T23:04:44.691Z,15.58
2023-05-04T23:07:12.200Z,15.60
2023-05-04T23:09:42.798Z,15.64
2023-05-04T23:12:10.416Z,15.63
2023-05-04T23:14:38.104Z,15.61
2023-05-04T23:17:05.651Z,15.55
2023-05-04T23:19:33.422Z,15.57
2023-05-04T23:22:02.437Z,15.58
2023-05-04T23:24:30.000Z,15.55
2023-05-04T23:26:57.649Z,15.51
2023-05-04T23:29:25.199Z,15.53
2023-05-04T23:31:53.265Z,15.53
2023-05-04T23:34:20.841Z,15.54
2023-05-04T23:36:49.125Z,15.48
2023-05-04T23:39:17.990Z,15.44
2023-05-04T23:41:45.502Z,15.40
2023-05-04T23:44:12.982Z,15.35
2023-05-04T23:46:40.547Z,15.29
2023-05-04T23:49:08.039Z,15.25
2023-05-04T23:51:35.588Z,15.26
2023-05-04T23:54:03.103Z,15.25
2023-05-04T23:56:32.094Z,15.21
2023-05-04T23:58:59.997Z,15.15
